Time;durP1;ratioP1;P1;durP2;ratioP2;P2;SDS_P1;SDS_P2;PMS_P1;PMS_P2;Temp;Humidity;BMP_temperature;BMP_pressure;BME280_temperature;BME280_humidity;BME280_pressure;Samples;Min_cycle;Max_cycle;Signal;HPM_P1;HPM_P2
2022/06/21 00:00:24;;;;;;;10.18;4.82;;;;;;;17.06;59.38;100005.66;5000510;28;20095;-56
2022/06/21 00:03:19;;;;;;;8.70;4.50;;;;;;;17.05;59.44;99998.69;4999937;28;20064;-56
2022/06/21 00:06:04;;;;;;;10.48;4.75;;;;;;;17.02;59.35;99991.75;4999827;28;20472;-56
2022/06/21 00:08:48;;;;;;;10.00;5.15;;;;;;;17.02;59.44;99981.28;5014393;28;20538;-56
2022/06/21 00:11:34;;;;;;;12.63;5.05;;;;;;;17.00;59.56;99976.91;5000454;28;20049;-56
2022/06/21 00:14:18;;;;;;;10.13;4.10;;;;;;;16.98;59.39;99982.19;4999925;28;20097;-55
2022/06/21 00:17:02;;;;;;;10.77;4.78;;;;;;;16.96;59.38;99970.84;5014622;28;20045;-55
2022/06/21 00:19:46;;;;;;;8.10;4.60;;;;;;;16.95;59.47;99973.50;5014460;28;20056;-55
2022/06/21 00:22:30;;;;;;;;;;;;;;;16.90;59.49;99981.34;5000271;28;20045;-55
2022/06/21 00:25:18;;;;;;;12.87;5.07;;;;;;;16.88;59.66;99972.69;5014125;28;20308;-54
2022/06/21 00:28:02;;;;;;;9.10;5.03;;;;;;;16.87;59.62;99953.47;5014804;28;20405;-56
2022/06/21 00:30:48;;;;;;;8.52;5.18;;;;;;;16.85;59.71;99962.22;5014632;28;20061;-54
2022/06/21 00:33:32;;;;;;;9.85;4.50;;;;;;;16.87;59.76;99966.56;4999412;28;20048;-54
2022/06/21 00:36:27;;;;;;;11.68;5.22;;;;;;;16.89;59.64;99961.31;5013877;28;20076;-55
2022/06/21 00:39:13;;;;;;;;;;;;;;;16.83;59.46;99954.38;5015066;28;20172;-54
2022/06/21 00:42:04;;;;;;;12.50;4.60;;;;;;;16.85;59.58;99964.84;5014258;28;19920;-54
2022/06/21 00:45:11;;;;;;;13.75;4.75;;;;;;;16.83;59.63;99966.63;4999879;28;20049;-55
2022/06/21 00:47:59;;;;;;;9.60;4.70;;;;;;;16.83;59.51;99972.69;5014391;28;20458;-56
2022/06/21 00:51:00;;;;;;;8.40;4.85;;;;;;;16.82;59.54;99970.13;5014079;28;20069;-55
2022/06/21 00:53:53;;;;;;;10.38;4.40;;;;;;;16.80;59.68;99964.91;5013813;28;20057;-54
2022/06/21 00:56:51;;;;;;;10.20;4.45;;;;;;;16.80;59.35;99964.91;5013691;28;20061;-55
2022/06/21 00:59:37;;;;;;;7.55;4.57;;;;;;;16.79;59.64;99957.06;5014338;28;20409;-54
2022/06/21 01:02:48;;;;;;;8.73;5.30;;;;;;;16.75;59.68;99958.84;4999136;28;20060;-54
2022/06/21 01:05:37;;;;;;;10.10;4.80;;;;;;;16.73;59.65;99951.03;5013803;28;20088;-55
2022/06/21 01:08:26;;;;;;;6.63;4.25;;;;;;;16.72;59.78;99936.22;4999178;28;20056;-55
2022/06/21 01:11:14;;;;;;;11.65;4.68;;;;;;;16.73;59.61;99947.53;4999014;28;20048;-54
2022/06/21 01:14:00;;;;;;;6.95;5.22;;;;;;;16.75;59.73;99944.00;4998435;28;20045;-55
2022/06/21 01:16:44;;;;;;;9.48;4.45;;;;;;;16.73;59.73;99935.31;4998878;28;20048;-55
2022/06/21 01:19:39;;;;;;;8.73;4.78;;;;;;;16.69;59.65;99931.00;5013334;28;20053;-56
2022/06/21 01:22:44;;;;;;;9.80;5.03;;;;;;;16.71;59.75;99939.72;4998411;28;20053;-56
2022/06/21 01:25:46;;;;;;;10.80;4.68;;;;;;;16.68;59.80;99942.34;5013571;28;20069;-55
2022/06/21 01:28:32;;;;;;;8.45;4.95;;;;;;;16.66;59.76;99931.03;5013374;28;20049;-55
2022/06/21 01:31:16;;;;;;;9.05;4.72;;;;;;;16.65;59.73;99925.81;4998475;28;20165;-56
2022/06/21 01:34:00;;;;;;;8.10;4.45;;;;;;;16.64;59.92;99929.31;5013929;28;20053;-55
2022/06/21 01:36:51;;;;;;;10.07;4.63;;;;;;;16.61;59.56;99916.28;5013351;28;20052;-57
2022/06/21 01:40:02;;;;;;;7.72;4.38;;;;;;;16.56;59.91;99917.19;4998669;28;20045;-56
2022/06/21 01:42:50;;;;;;;8.75;4.20;;;;;;;16.58;59.89;99925.88;4998606;28;20555;-55
2022/06/21 01:46:07;;;;;;;8.10;4.68;;;;;;;16.58;59.89;99925.03;4998540;28;20439;-56
2022/06/21 01:48:55;;;;;;;9.55;5.13;;;;;;;16.58;60.02;99922.41;5013250;28;20057;-55
2022/06/21 01:51:47;;;;;;;9.27;4.60;;;;;;;16.56;59.79;99918.94;5012976;28;20129;-56
2022/06/21 01:54:38;;;;;;;7.50;4.50;;;;;;;16.55;59.89;99911.97;4998690;28;20149;-56
2022/06/21 01:57:23;;;;;;;7.95;4.97;;;;;;;16.54;60.03;99910.25;4998492;28;20100;-55
2022/06/21 02:00:08;;;;;;;10.68;4.63;;;;;;;16.55;59.84;99911.97;5013711;28;20104;-54
2022/06/21 02:03:02;;;;;;;8.73;4.72;;;;;;;16.52;59.90;99905.00;5013312;28;20140;-56
2022/06/21 02:05:54;;;;;;;7.15;4.18;;;;;;;16.50;59.64;99901.56;4998433;28;20129;-56
2022/06/21 02:08:47;;;;;;;8.68;4.40;;;;;;;16.49;59.79;99898.94;4998302;28;20049;-55
2022/06/21 02:11:42;;;;;;;9.35;4.47;;;;;;;16.49;59.79;99891.09;4998791;28;20527;-55
2022/06/21 02:14:29;;;;;;;;;;;;;;;16.44;59.55;99902.47;4998592;28;20104;-56
2022/06/21 02:17:23;;;;;;;13.45;4.90;;;;;;;16.41;59.86;99906.88;5013191;28;19999;-55
2022/06/21 02:20:32;;;;;;;6.28;4.60;;;;;;;16.39;59.74;99909.53;4998260;28;20088;-56
2022/06/21 02:23:18;;;;;;;8.25;5.18;;;;;;;16.38;59.86;99904.28;5012811;28;20072;-56
2022/06/21 02:26:02;;;;;;;10.70;4.22;;;;;;;16.38;59.78;99896.44;4998362;28;20092;-55
2022/06/21 02:28:46;;;;;;;8.07;4.53;;;;;;;16.37;59.82;99889.47;5012683;28;20056;-56
2022/06/21 02:31:31;;;;;;;6.85;4.15;;;;;;;16.35;59.95;99886.03;5013153;28;20068;-56
2022/06/21 02:34:20;;;;;;;;;;;;;;;16.34;59.69;99890.38;5017092;28;20050;-56
2022/06/21 02:37:05;;;;;;;7.47;4.55;;;;;;;16.29;59.90;99893.06;5016536;28;20284;-56
2022/06/21 02:39:50;;;;;;;9.25;4.85;;;;;;;16.28;59.82;99896.53;5016864;28;20073;-56
2022/06/21 02:42:39;;;;;;;10.82;5.32;;;;;;;16.27;60.08;99888.72;5001808;28;20429;-56
2022/06/21 02:45:30;;;;;;;8.98;5.57;;;;;;;16.25;59.94;99890.50;5016440;28;20049;-56
2022/06/21 02:48:19;;;;;;;8.63;4.95;;;;;;;16.26;59.82;99894.84;5001838;28;20507;-55
2022/06/21 02:51:16;;;;;;;7.95;4.72;;;;;;;16.26;59.98;99902.69;5001663;28;20129;-56
2022/06/21 02:54:04;;;;;;;7.45;5.28;;;;;;;16.24;59.87;99901.81;5001292;28;20077;-56
2022/06/21 02:57:09;;;;;;;16.45;5.32;;;;;;;16.21;59.96;99887.00;5001326;28;20057;-56
2022/06/21 02:59:56;;;;;;;9.70;5.35;;;;;;;16.21;59.56;99897.47;5001208;28;20048;-56
2022/06/21 03:02:39;;;;;;;10.35;5.20;;;;;;;16.18;59.88;99899.25;5015952;28;20104;-56
2022/06/21 03:05:26;;;;;;;13.25;5.30;;;;;;;16.16;60.01;99896.66;5015792;28;20044;-56
2022/06/21 03:08:11;;;;;;;12.05;5.97;;;;;;;16.15;59.94;99894.94;5001470;28;20080;-56
2022/06/21 03:10:55;;;;;;;9.40;5.57;;;;;;;16.14;59.83;99882.75;5016215;28;20104;-55
2022/06/21 03:13:39;;;;;;;9.57;5.00;;;;;;;16.12;60.03;99887.97;5015839;28;20524;-54
2022/06/21 03:16:24;;;;;;;9.77;5.30;;;;;;;16.13;59.83;99899.31;5015890;28;20053;-54
2022/06/21 03:19:19;;;;;;;9.32;4.93;;;;;;;16.11;59.76;99896.72;5015863;28;20049;-57
2022/06/21 03:22:15;;;;;;;10.13;5.05;;;;;;;16.10;59.90;99886.25;5001029;28;20133;-57
2022/06/21 03:25:05;;;;;;;8.45;5.03;;;;;;;16.07;59.75;99881.94;5015557;28;20052;-54
2022/06/21 03:27:58;;;;;;;10.75;5.55;;;;;;;16.05;59.90;99881.06;5000993;28;20604;-56
2022/06/21 03:30:42;;;;;;;6.13;4.07;;;;;;;16.04;59.96;99876.72;5015566;28;20405;-56
2022/06/21 03:33:26;;;;;;;7.43;4.95;;;;;;;16.05;59.94;99882.81;5015590;28;20052;-56
2022/06/21 03:36:18;;;;;;;8.80;4.40;;;;;;;16.06;60.01;99890.66;5000905;28;20559;-55
2022/06/21 03:39:17;;;;;;;7.55;4.85;;;;;;;16.06;59.82;99885.44;5000908;28;20049;-55
2022/06/21 03:42:02;;;;;;;12.45;5.65;;;;;;;16.05;59.40;99877.59;5000816;28;20096;-55
2022/06/21 03:44:58;;;;;;;14.38;5.85;;;;;;;16.03;59.78;99876.75;5014083;28;20469;-56
2022/06/21 03:48:03;;;;;;;6.50;4.88;;;;;;;16.02;59.96;99881.09;5000007;28;20139;-55
2022/06/21 03:51:20;;;;;;;9.45;5.25;;;;;;;16.00;59.86;99868.94;5015114;28;20524;-56
2022/06/21 03:54:12;;;;;;;12.25;5.15;;;;;;;15.98;59.82;99861.97;5015437;28;20037;-55
2022/06/21 03:57:09;;;;;;;5.68;4.22;;;;;;;15.96;59.82;99865.50;5000004;28;20056;-56
2022/06/21 04:00:00;;;;;;;7.32;4.72;;;;;;;15.94;59.96;99860.25;5000303;28;20053;-54
2022/06/21 04:02:52;;;;;;;7.13;4.63;;;;;;;15.95;59.97;99858.53;5014702;28;20061;-54
2022/06/21 04:05:53;;;;;;;8.85;4.88;;;;;;;15.92;60.15;99861.16;5000306;28;20049;-55
2022/06/21 04:08:46;;;;;;;10.23;5.28;;;;;;;15.91;59.94;99869.88;4999997;28;20145;-54
2022/06/21 04:11:46;;;;;;;9.00;5.30;;;;;;;15.91;60.00;99865.50;4999397;28;20053;-55
2022/06/21 04:14:46;;;;;;;12.05;5.53;;;;;;;15.91;60.05;99864.66;5000186;28;20079;-55
2022/06/21 04:17:39;;;;;;;8.60;5.32;;;;;;;15.89;59.73;99850.72;5014501;28;20049;-54
2022/06/21 04:20:41;;;;;;;11.23;5.10;;;;;;;15.89;60.07;99841.13;5014758;28;20131;-54
2022/06/21 04:23:43;;;;;;;10.00;5.63;;;;;;;15.89;60.08;99848.13;4999848;28;20567;-55
2022/06/21 04:26:49;;;;;;;7.85;4.95;;;;;;;15.90;60.17;99863.78;4999623;28;20108;-56
2022/06/21 04:29:42;;;;;;;11.05;5.18;;;;;;;15.90;59.96;99868.16;5014750;28;20141;-56
2022/06/21 04:32:36;;;;;;;11.68;4.97;;;;;;;15.88;60.19;99862.94;4999837;28;20104;-57
2022/06/21 04:35:35;;;;;;;8.43;5.43;;;;;;;15.91;60.09;99860.28;4999675;28;20053;-56
2022/06/21 04:38:44;;;;;;;7.55;4.45;;;;;;;15.90;60.05;99855.09;4999733;28;20548;-56
2022/06/21 04:41:35;;;;;;;11.68;6.03;;;;;;;15.87;60.11;99852.50;5014008;28;20092;-54
2022/06/21 04:44:27;;;;;;;10.23;5.50;;;;;;;15.88;60.27;99862.06;4999267;28;20045;-56
2022/06/21 04:47:14;;;;;;;6.93;4.70;;;;;;;15.86;60.20;99867.31;4999314;28;20056;-56
2022/06/21 04:50:04;;;;;;;13.75;5.85;;;;;;;15.87;59.96;99865.56;5014298;28;20064;-55
2022/06/21 04:52:57;;;;;;;9.25;5.55;;;;;;;15.87;60.21;99865.56;4999294;28;20048;-54
2022/06/21 04:56:00;;;;;;;12.45;5.75;;;;;;;15.86;60.17;99869.94;4998936;28;20096;-54
2022/06/21 04:58:47;;;;;;;9.45;5.97;;;;;;;15.88;60.42;99854.22;5014209;28;20390;-55
2022/06/21 05:01:32;;;;;;;12.23;5.13;;;;;;;15.88;60.31;99862.94;4999183;28;20118;-57
2022/06/21 05:04:21;;;;;;;10.10;5.22;;;;;;;15.91;60.34;99865.50;5014247;28;20056;-55
2022/06/21 05:07:17;;;;;;;10.80;5.43;;;;;;;15.93;60.32;99865.50;4998555;28;20518;-55
2022/06/21 05:10:06;;;;;;;10.52;5.78;;;;;;;15.94;60.47;99856.78;5014024;28;20049;-56
2022/06/21 05:12:53;;;;;;;10.48;5.03;;;;;;;15.93;60.55;99855.91;4999406;28;20108;-55
2022/06/21 05:15:40;;;;;;;15.63;6.00;;;;;;;15.95;60.64;99855.91;4998936;28;20100;-54
2022/06/21 05:18:30;;;;;;;9.32;5.25;;;;;;;15.97;60.57;99860.25;4998881;28;20396;-54
2022/06/21 05:21:28;;;;;;;8.77;4.90;;;;;;;15.99;60.50;99852.38;4999080;28;20045;-54
2022/06/21 05:24:13;;;;;;;8.02;6.07;;;;;;;16.01;60.55;99860.22;4998743;28;20048;-55
2022/06/21 05:27:33;;;;;;;8.30;4.95;;;;;;;16.03;60.58;99854.09;4998233;28;20076;-55
2022/06/21 05:30:27;;;;;;;7.85;4.70;;;;;;;16.01;60.55;99848.00;4981408;28;20052;-54
2022/06/21 05:33:24;;;;;;;7.90;4.80;;;;;;;16.03;60.75;99846.25;4998782;28;20152;-54
2022/06/21 05:36:15;;;;;;;12.02;5.70;;;;;;;16.06;60.66;99835.75;4998532;28;20335;-56
2022/06/21 05:39:04;;;;;;;10.82;5.25;;;;;;;16.08;60.88;99848.81;4999061;28;20053;-56
2022/06/21 05:41:52;;;;;;;9.10;5.07;;;;;;;16.09;60.83;99855.75;5013167;28;20527;-55
2022/06/21 05:44:45;;;;;;;13.25;5.10;;;;;;;16.11;60.77;99852.28;4999130;28;20060;-56
2022/06/21 05:48:01;;;;;;;12.18;5.50;;;;;;;16.12;60.82;99858.34;4998666;28;20100;-56
2022/06/21 05:50:46;;;;;;;8.90;5.03;;;;;;;16.13;60.58;99855.72;4998581;28;20053;-56
2022/06/21 05:53:40;;;;;;;8.98;5.82;;;;;;;16.14;60.62;99857.44;4998971;28;20049;-56
2022/06/21 05:56:26;;;;;;;12.00;5.70;;;;;;;16.16;60.80;99854.84;4998674;28;20060;-56
2022/06/21 05:59:17;;;;;;;9.02;5.32;;;;;;;16.14;60.88;99847.00;4998495;28;20092;-56
2022/06/21 06:02:27;;;;;;;12.15;5.28;;;;;;;16.17;60.78;99864.41;5013485;28;20092;-56
2022/06/21 06:05:17;;;;;;;11.85;6.80;;;;;;;16.19;61.20;99853.94;4998828;28;20045;-55
2022/06/21 06:08:08;;;;;;;11.13;5.88;;;;;;;16.20;60.78;99858.28;5001034;28;20041;-56
2022/06/21 06:10:54;;;;;;;10.27;5.68;;;;;;;16.21;60.76;99863.47;5002488;28;20049;-56
2022/06/21 06:13:41;;;;;;;10.32;5.75;;;;;;;16.21;60.81;99868.72;5002393;28;20045;-56
2022/06/21 06:16:35;;;;;;;11.63;6.05;;;;;;;16.21;60.98;99865.25;5001738;28;20532;-55
2022/06/21 06:19:23;;;;;;;;;;;;;;;16.17;60.58;99863.53;5002797;28;20079;-56
2022/06/21 06:22:21;;;;;;;9.70;6.63;;;;;;;16.14;61.07;99867.91;5002358;28;19925;-56
2022/06/21 06:26:04;;;;;;;9.07;6.45;;;;;;;16.17;61.02;99863.53;5001628;28;20118;-55
2022/06/21 06:29:15;;;;;;;11.57;6.47;;;;;;;16.18;61.11;99853.09;4942136;28;20094;-55
2022/06/21 06:32:22;;;;;;;10.35;6.18;;;;;;;16.16;60.95;99870.53;5001945;28;20520;-55
2022/06/21 06:35:16;;;;;;;9.13;6.35;;;;;;;16.17;60.94;99876.59;5016272;28;20104;-55
2022/06/21 06:38:00;;;;;;;14.65;6.78;;;;;;;16.17;61.08;99877.50;5001464;28;20520;-55
2022/06/21 06:41:02;;;;;;;11.32;6.82;;;;;;;16.21;61.06;99888.78;5015322;28;20523;-55
2022/06/21 06:43:53;;;;;;;12.20;7.55;;;;;;;16.22;61.10;99900.97;5001448;28;20057;-54
2022/06/21 06:46:43;;;;;;;15.00;7.10;;;;;;;16.24;61.15;99901.81;5016452;28;20421;-55
2022/06/21 06:49:41;;;;;;;11.63;6.68;;;;;;;16.26;61.15;99887.00;5001959;28;20459;-54
2022/06/21 06:52:41;;;;;;;10.82;7.28;;;;;;;16.29;61.11;99894.78;5001650;28;20057;-56
2022/06/21 06:55:44;;;;;;;11.15;6.68;;;;;;;16.33;61.17;99896.50;5001533;28;20049;-55
2022/06/21 06:58:38;;;;;;;11.20;6.93;;;;;;;16.34;60.94;99900.00;5016436;28;20192;-56
2022/06/21 07:01:28;;;;;;;12.45;6.93;;;;;;;16.35;61.14;99889.50;5000752;28;20040;-57
2022/06/21 07:04:18;;;;;;;10.85;7.30;;;;;;;16.36;61.04;99882.50;5001385;28;20548;-56
2022/06/21 07:07:11;;;;;;;14.55;7.07;;;;;;;16.37;61.52;99877.28;5015889;28;20556;-57
2022/06/21 07:10:03;;;;;;;13.88;7.28;;;;;;;16.38;61.31;99872.91;5001271;28;20045;-56
2022/06/21 07:12:48;;;;;;;10.65;7.28;;;;;;;16.41;61.22;99876.38;5001014;28;20155;-56
2022/06/21 07:15:36;;;;;;;10.07;6.63;;;;;;;16.43;61.20;99881.56;5000998;28;20048;-56
2022/06/21 07:18:29;;;;;;;10.98;6.45;;;;;;;16.43;61.25;99874.59;5014719;28;20052;-55
2022/06/21 07:21:14;;;;;;;10.80;6.75;;;;;;;16.46;61.25;99875.44;5000998;28;20061;-55
2022/06/21 07:23:59;;;;;;;11.95;7.25;;;;;;;16.47;61.24;99864.97;5000794;28;20096;-55
2022/06/21 07:26:53;;;;;;;12.68;6.35;;;;;;;16.47;61.36;99859.75;5000757;28;20065;-55
2022/06/21 07:30:05;;;;;;;8.60;5.63;;;;;;;16.49;61.15;99864.94;5000612;28;20076;-55
2022/06/21 07:32:54;;;;;;;12.38;7.20;;;;;;;16.51;61.20;99856.19;5000639;28;20100;-56
2022/06/21 07:35:52;;;;;;;11.98;6.20;;;;;;;16.52;61.34;99838.75;5000919;28;20621;-55
2022/06/21 07:38:44;;;;;;;10.95;6.85;;;;;;;16.52;61.13;99839.63;5015657;28;20092;-55
2022/06/21 07:41:36;;;;;;;14.65;6.38;;;;;;;16.52;61.22;99841.38;5000965;28;20049;-55
2022/06/21 07:44:34;;;;;;;10.70;6.90;;;;;;;16.52;61.34;99842.22;5000348;28;20148;-55
2022/06/21 07:47:27;;;;;;;9.00;6.72;;;;;;;16.54;61.18;99830.00;5000450;28;20116;-55
2022/06/21 07:50:21;;;;;;;9.90;6.38;;;;;;;16.56;61.15;99832.63;5015103;28;20528;-55
2022/06/21 07:53:19;;;;;;;9.20;5.88;;;;;;;16.58;61.13;99823.00;5015433;28;20414;-57
2022/06/21 07:56:31;;;;;;;10.10;6.85;;;;;;;16.60;61.22;99826.44;5014997;28;20048;-56
2022/06/21 07:59:23;;;;;;;9.07;6.32;;;;;;;16.62;61.31;99818.59;5000096;28;20104;-54
2022/06/21 08:08:28;;;;;;;9.35;6.75;;;;;;;16.59;61.18;99788.97;5014807;28;20096;-55
2022/06/21 08:11:24;;;;;;;11.23;6.40;;;;;;;16.59;61.02;99788.97;5000158;28;20512;-54
2022/06/21 08:14:10;;;;;;;14.25;7.50;;;;;;;16.61;60.97;99773.22;4999667;28;20464;-55
2022/06/21 08:17:15;;;;;;;13.15;6.75;;;;;;;16.61;61.19;99781.09;5000380;28;20088;-55
2022/06/21 08:20:14;;;;;;;13.05;5.97;;;;;;;16.63;60.91;99789.78;4999780;28;20065;-54
2022/06/21 08:23:06;;;;;;;12.77;6.75;;;;;;;16.65;60.90;99782.78;4999736;28;20052;-55
2022/06/21 08:26:02;;;;;;;13.15;6.03;;;;;;;16.66;61.07;99776.66;4999274;28;20057;-56
2022/06/21 08:29:10;;;;;;;8.70;5.70;;;;;;;16.67;60.98;99785.38;4999394;28;20096;-56
2022/06/21 08:32:00;;;;;;;14.02;6.15;;;;;;;16.67;60.86;99788.88;4999628;28;20440;-56
2022/06/21 08:34:47;;;;;;;12.73;5.85;;;;;;;16.71;61.03;99789.69;4999077;28;20099;-56
2022/06/21 08:37:44;;;;;;;10.18;6.57;;;;;;;16.71;60.73;99784.44;5014392;28;20095;-57
2022/06/21 08:41:01;;;;;;;10.88;5.97;;;;;;;16.72;60.67;99784.44;4999799;28;20053;-56
2022/06/21 08:44:09;;;;;;;10.45;5.88;;;;;;;16.73;60.73;99764.38;5014205;28;20061;-56
2022/06/21 08:47:14;;;;;;;9.38;5.32;;;;;;;16.73;60.62;99759.13;4999070;28;20049;-56
2022/06/21 08:50:07;;;;;;;13.60;6.22;;;;;;;16.73;60.65;99757.41;4999158;28;20061;-56
2022/06/21 08:53:26;;;;;;;8.20;5.90;;;;;;;16.77;60.76;99752.09;4999506;28;20128;-56
2022/06/21 08:56:31;;;;;;;9.13;5.97;;;;;;;16.78;60.59;99743.34;4999371;28;20404;-56
2022/06/21 08:59:38;;;;;;;14.65;5.90;;;;;;;16.79;60.69;99740.75;4999061;28;20061;-56
2022/06/21 09:02:56;;;;;;;11.55;5.43;;;;;;;16.78;60.61;99738.13;5013680;28;20504;-56
2022/06/21 09:06:11;;;;;;;12.00;5.38;;;;;;;16.78;60.65;99738.13;4999331;28;20125;-56
2022/06/21 09:09:07;;;;;;;11.00;5.80;;;;;;;16.79;60.60;99732.00;5013708;28;20052;-55
2022/06/21 09:12:25;;;;;;;9.90;5.50;;;;;;;16.78;60.74;99736.38;4998953;28;20052;-55
2022/06/21 09:15:30;;;;;;;12.05;6.32;;;;;;;16.78;60.78;99744.25;5013826;28;20045;-54
2022/06/21 09:18:26;;;;;;;11.85;5.40;;;;;;;16.81;60.79;99752.06;5013934;28;20520;-55
2022/06/21 09:21:38;;;;;;;9.88;5.28;;;;;;;16.82;60.66;99766.00;5013487;28;20053;-55
2022/06/21 09:24:39;;;;;;;10.18;6.03;;;;;;;16.82;60.73;99750.28;5013612;28;20190;-55
2022/06/21 09:27:31;;;;;;;12.15;6.35;;;;;;;16.83;60.67;99723.22;4998728;28;20509;-56
2022/06/21 09:30:37;;;;;;;14.10;5.90;;;;;;;16.84;60.61;99717.13;4998875;28;20065;-56
2022/06/21 09:33:31;;;;;;;11.00;5.40;;;;;;;16.84;60.52;99717.13;4998894;28;20588;-60
2022/06/21 09:36:47;;;;;;;11.02;5.55;;;;;;;16.84;60.50;99741.50;4999072;28;20076;-56
2022/06/21 09:39:43;;;;;;;7.40;5.57;;;;;;;16.84;60.75;99732.81;4998563;28;20092;-55
2022/06/21 09:42:48;;;;;;;6.60;5.07;;;;;;;16.84;60.56;99735.44;5000954;28;20088;-55
2022/06/21 09:46:10;;;;;;;11.40;5.60;;;;;;;16.86;60.43;99736.28;5017464;28;20110;-55
2022/06/21 09:49:13;;;;;;;9.85;5.85;;;;;;;16.86;60.72;99742.38;5002470;28;20508;-56
2022/06/21 09:52:20;;;;;;;11.00;5.90;;;;;;;16.86;60.54;99731.91;5016985;28;20060;-56
2022/06/21 09:55:10;;;;;;;8.82;5.93;;;;;;;16.87;60.75;99732.78;5002300;28;20413;-55
2022/06/21 09:58:23;;;;;;;7.95;5.60;;;;;;;16.87;60.63;99738.00;5002374;28;20057;-56
2022/06/21 10:01:36;;;;;;;8.10;5.53;;;;;;;16.88;60.58;99737.13;5017127;28;20061;-56
2022/06/21 10:04:43;;;;;;;8.18;6.05;;;;;;;16.90;60.47;99740.56;5015956;28;20092;-56
2022/06/21 10:07:51;;;;;;;13.70;6.32;;;;;;;16.89;60.80;99731.84;5002404;28;20176;-56
2022/06/21 10:10:49;;;;;;;8.88;6.03;;;;;;;16.90;60.65;99737.94;5017269;28;20079;-56
2022/06/21 10:14:04;;;;;;;10.25;5.78;;;;;;;16.89;60.58;99737.09;5016650;28;20060;-56
2022/06/21 10:16:59;;;;;;;13.38;6.90;;;;;;;16.89;60.69;99738.84;5017112;28;20115;-56
2022/06/21 10:20:01;;;;;;;10.32;6.05;;;;;;;16.88;60.62;99737.13;5016959;28;20532;-56
2022/06/21 10:23:19;;;;;;;10.13;5.88;;;;;;;16.89;60.56;99744.09;5016669;28;20091;-56
2022/06/21 10:26:25;;;;;;;9.20;5.72;;;;;;;16.90;60.72;99751.91;5001696;28;20127;-56
2022/06/21 10:29:42;;;;;;;8.00;6.15;;;;;;;16.91;60.71;99763.22;5002003;28;20075;-56
2022/06/21 10:32:43;;;;;;;14.32;5.85;;;;;;;16.90;60.61;99754.53;4958771;28;20508;-56
2022/06/21 10:35:57;;;;;;;9.27;5.45;;;;;;;16.92;60.58;99746.63;5016774;28;20049;-56
2022/06/21 10:38:56;;;;;;;10.05;5.28;;;;;;;16.93;60.49;99737.91;5016016;28;20053;-56
2022/06/21 10:45:18;;;;;;;9.55;5.25;;;;;;;16.98;60.40;99748.31;5016354;28;20053;-56
2022/06/21 10:48:17;;;;;;;10.18;5.53;;;;;;;16.99;60.47;99750.06;5016211;28;20401;-56
2022/06/21 10:51:26;;;;;;;12.30;5.82;;;;;;;17.00;60.15;99746.56;5001750;28;20112;-56
2022/06/21 10:54:45;;;;;;;9.57;4.72;;;;;;;17.00;60.53;99752.66;5001487;28;20048;-54
2022/06/21 10:58:00;;;;;;;8.98;5.35;;;;;;;17.01;60.43;99749.16;5001725;28;20068;-56
2022/06/21 11:04:29;;;;;;;10.07;5.22;;;;;;;16.99;60.62;99753.56;5016316;28;20010;-56
2022/06/21 11:07:42;;;;;;;12.40;5.10;;;;;;;17.02;60.45;99753.53;5000924;28;20092;-56
2022/06/21 11:10:34;;;;;;;11.45;5.25;;;;;;;17.02;60.44;99748.28;5001502;28;20095;-56
2022/06/21 11:13:22;;;;;;;8.65;5.63;;;;;;;17.04;60.30;99750.88;5000972;28;20049;-56
2022/06/21 11:16:18;;;;;;;8.25;4.70;;;;;;;17.04;60.61;99746.50;5000802;28;20056;-56
2022/06/21 11:19:40;;;;;;;8.68;5.95;;;;;;;17.06;60.23;99751.72;5001353;28;20069;-56
2022/06/21 11:22:37;;;;;;;8.80;4.95;;;;;;;17.05;60.62;99753.44;5015538;28;20421;-56
2022/06/21 11:25:46;;;;;;;6.05;4.88;;;;;;;17.05;60.57;99737.72;5000681;28;20049;-56
2022/06/21 11:28:36;;;;;;;13.02;6.30;;;;;;;17.07;60.55;99744.72;5001084;28;20397;-57
2022/06/21 11:31:37;;;;;;;10.00;5.65;;;;;;;17.07;60.46;99742.09;5015523;28;20104;-56
2022/06/21 11:34:21;;;;;;;11.23;5.57;;;;;;;17.08;60.45;99736.84;5001063;28;20052;-56
2022/06/21 11:37:30;;;;;;;11.13;6.10;;;;;;;17.11;60.44;99735.91;5015274;28;20048;-56
2022/06/21 11:40:39;;;;;;;10.15;5.90;;;;;;;17.12;60.43;99730.69;5015515;28;20456;-56
2022/06/21 11:43:48;;;;;;;10.20;5.35;;;;;;;17.12;60.33;99728.06;5000796;28;20104;-55
2022/06/21 11:46:51;;;;;;;10.88;5.07;;;;;;;17.12;60.29;99724.56;5000403;28;20092;-55
2022/06/21 11:49:56;;;;;;;9.63;5.97;;;;;;;17.11;60.38;99721.09;5000440;28;20131;-55
2022/06/21 11:53:07;;;;;;;10.43;5.90;;;;;;;17.12;60.48;99711.47;5000240;28;20084;-55
2022/06/21 11:56:10;;;;;;;8.60;5.15;;;;;;;17.15;60.50;99711.44;4976487;28;20080;-57
2022/06/21 11:59:10;;;;;;;10.93;5.20;;;;;;;17.16;60.30;99706.16;5014923;28;20049;-56
2022/06/21 12:02:09;;;;;;;13.40;5.45;;;;;;;17.18;60.19;99703.53;4999858;28;20096;-56
2022/06/21 12:04:54;;;;;;;10.15;5.43;;;;;;;17.18;60.09;99699.13;5000021;28;20401;-56
2022/06/21 12:08:01;;;;;;;9.13;5.18;;;;;;;17.18;60.44;99700.91;5014404;28;20052;-56
2022/06/21 12:10:51;;;;;;;7.60;5.03;;;;;;;17.17;60.17;99702.66;5000142;28;20128;-54
2022/06/21 12:14:17;;;;;;;9.30;5.38;;;;;;;17.20;60.10;99701.75;5000051;28;20056;-56
2022/06/21 12:17:38;;;;;;;9.77;5.57;;;;;;;17.21;60.20;99695.59;5014557;28;20052;-56
2022/06/21 12:20:56;;;;;;;8.45;4.90;;;;;;;17.22;60.07;99699.94;4999559;28;20133;-56
2022/06/21 12:23:48;;;;;;;10.60;4.70;;;;;;;17.23;60.18;99696.44;4999453;28;20064;-56
2022/06/21 12:26:35;;;;;;;5.60;4.57;;;;;;;17.24;60.27;99694.69;4999540;28;20053;-56
2022/06/21 12:29:20;;;;;;;11.27;4.72;;;;;;;17.26;60.09;99692.91;4999813;28;20100;-56
2022/06/21 12:32:10;;;;;;;8.05;4.97;;;;;;;17.26;60.00;99691.16;4999444;28;20589;-55
2022/06/21 12:35:02;;;;;;;10.70;5.18;;;;;;;17.28;59.95;99689.38;4999279;28;20100;-55
2022/06/21 12:37:50;;;;;;;9.23;5.38;;;;;;;17.29;60.17;99691.09;4999898;28;20523;-55
2022/06/21 12:40:39;;;;;;;11.35;5.05;;;;;;;17.31;59.90;99680.59;5014370;28;20111;-55
2022/06/21 12:43:35;;;;;;;8.88;4.60;;;;;;;17.32;59.72;99679.69;4999135;28;20099;-56
2022/06/21 12:46:30;;;;;;;11.55;4.95;;;;;;;17.33;59.88;99679.69;5013787;28;20084;-55
2022/06/21 12:49:26;;;;;;;10.75;4.63;;;;;;;17.35;59.74;99677.03;4999421;28;20101;-55
2022/06/21 12:52:25;;;;;;;8.90;4.80;;;;;;;17.37;59.96;99682.22;5014387;28;20484;-57
2022/06/21 12:55:38;;;;;;;12.85;4.82;;;;;;;17.36;59.52;99673.53;4999487;28;20053;-55
2022/06/21 12:58:40;;;;;;;9.05;4.25;;;;;;;17.38;59.66;99670.88;5013936;28;20045;-55
2022/06/21 13:01:43;;;;;;;7.95;4.57;;;;;;;17.37;59.61;99680.50;4999022;28;20536;-57
2022/06/21 13:05:00;;;;;;;8.60;5.15;;;;;;;17.38;59.67;99677.00;5013619;28;20416;-55
2022/06/21 13:07:50;;;;;;;10.75;4.55;;;;;;;17.38;59.34;99684.84;5013717;28;20184;-55
2022/06/21 13:10:47;;;;;;;11.70;4.40;;;;;;;17.39;59.52;99680.47;5014033;28;20072;-55
2022/06/21 13:13:51;;;;;;;7.22;4.68;;;;;;;17.40;59.58;99682.19;4998795;28;20126;-55
2022/06/21 13:16:35;;;;;;;8.07;4.53;;;;;;;17.40;59.28;99679.56;4997869;28;20473;-55
2022/06/21 13:20:06;;;;;;;8.45;4.93;;;;;;;17.41;59.27;99678.69;5013742;28;20088;-55
2022/06/21 13:23:02;;;;;;;14.77;4.63;;;;;;;17.42;59.29;99672.56;4998688;28;20045;-55
2022/06/21 13:26:02;;;;;;;7.38;4.65;;;;;;;17.42;59.24;99667.31;5013232;28;20520;-55
2022/06/21 13:29:04;;;;;;;10.63;4.57;;;;;;;17.43;59.14;99669.03;4999106;28;20501;-56
2022/06/21 13:31:56;;;;;;;7.22;4.05;;;;;;;17.44;59.35;99668.16;4998769;28;20056;-56
2022/06/21 13:34:53;;;;;;;8.50;4.63;;;;;;;17.43;59.20;99663.81;4999021;28;20143;-56
2022/06/21 13:37:55;;;;;;;7.80;4.15;;;;;;;17.46;59.29;99669.00;5013580;28;20133;-56
2022/06/21 13:40:51;;;;;;;9.23;4.40;;;;;;;17.47;59.31;99660.25;4998854;28;20052;-56
2022/06/21 13:43:41;;;;;;;10.50;4.55;;;;;;;17.49;59.35;99658.47;4998766;28;20101;-56
2022/06/21 13:46:31;;;;;;;7.10;4.22;;;;;;;17.49;59.30;99653.22;4998188;28;20052;-56
2022/06/21 13:49:15;;;;;;;8.30;5.47;;;;;;;17.52;59.16;99653.13;4998809;28;20057;-56
2022/06/21 13:52:12;;;;;;;8.80;5.05;;;;;;;17.52;59.47;99650.53;5013702;28;20041;-55
2022/06/21 13:55:04;;;;;;;7.88;4.88;;;;;;;17.52;59.16;99640.03;4998156;28;20520;-57
2022/06/21 13:58:32;;;;;;;7.53;4.57;;;;;;;17.53;59.32;99647.00;4998642;28;20053;-56